createdAt,value
2023-06-05T00:02:01.422Z,81.72
2023-06-05T00:04:29.234Z,81.99
2023-06-05T00:06:57.894Z,81.71
2023-06-05T00:09:24.769Z,81.34
2023-06-05T00:11:51.710Z,81.30
2023-06-05T00:14:18.516Z,81.26
2023-06-05T00:16:45.602Z,81.28
2023-06-05T00:19:13.414Z,81.40
2023-06-05T00:21:40.235Z,81.59
2023-06-05T00:24:07.493Z,81.88
2023-06-05T00:26:34.357Z,81.90
2023-06-05T00:29:01.230Z,81.89
2023-06-05T00:31:28.637Z,82.20
2023-06-05T00:33:55.683Z,82.34
2023-06-05T00:36:23.894Z,82.35
2023-06-05T00:38:51.658Z,82.12
2023-06-05T00:41:18.512Z,82.20
2023-06-05T00:43:45.920Z,81.65
2023-06-05T00:46:13.898Z,81.67
2023-06-05T00:48:41.130Z,81.72
2023-06-05T00:51:08.834Z,81.80
2023-06-05T00:53:36.715Z,82.09
2023-06-05T00:56:04.034Z,82.21
2023-06-05T00:58:31.332Z,82.31
2023-06-05T01:00:58.921Z,82.01
2023-06-05T01:03:26.277Z,81.98
2023-06-05T01:05:53.319Z,81.97
2023-06-05T01:08:26.222Z,81.86
2023-06-05T01:10:53.827Z,81.87
2023-06-05T01:13:26.368Z,81.69
2023-06-05T01:15:53.865Z,81.67
2023-06-05T01:18:20.746Z,81.90
2023-06-05T01:20:47.653Z,82.08
2023-06-05T01:23:14.508Z,82.28
2023-06-05T01:25:44.057Z,81.95
2023-06-05T01:28:27.761Z,81.93
2023-06-05T01:31:15.742Z,81.86
2023-06-05T01:33:46.820Z,81.69
2023-06-05T01:36:14.046Z,81.69
2023-06-05T01:38:41.799Z,81.81
2023-06-05T01:41:09.073Z,82.27
2023-06-05T01:43:36.311Z,82.40
2023-06-05T01:46:03.157Z,82.49
2023-06-05T01:48:31.277Z,82.56
2023-06-05T01:50:59.875Z,82.69
2023-06-05T01:53:27.298Z,82.73
2023-06-05T01:55:58.217Z,82.79
2023-06-05T01:58:26.053Z,82.60
2023-06-05T02:00:53.828Z,82.64
2023-06-05T02:03:21.763Z,82.62
2023-06-05T02:05:48.593Z,82.56
2023-06-05T02:08:20.694Z,82.40
2023-06-05T02:10:48.166Z,82.30
2023-06-05T02:13:16.821Z,82.17
2023-06-05T02:15:46.215Z,82.38
2023-06-05T02:18:14.434Z,82.20
2023-06-05T02:20:42.150Z,82.29
2023-06-05T02:23:09.614Z,82.18
2023-06-05T02:25:36.491Z,82.28
2023-06-05T02:28:03.352Z,82.38
2023-06-05T02:30:30.330Z,82.37
2023-06-05T02:33:02.574Z,82.23
2023-06-05T02:35:30.798Z,82.05
2023-06-05T02:37:58.777Z,82.06
2023-06-05T02:40:25.806Z,82.30
2023-06-05T02:42:52.626Z,82.24
2023-06-05T02:45:19.473Z,82.24
2023-06-05T02:47:46.325Z,82.20
2023-06-05T02:50:13.593Z,82.16
2023-06-05T02:52:41.069Z,82.09
2023-06-05T02:55:09.161Z,82.40
2023-06-05T02:57:42.663Z,82.32
2023-06-05T03:00:15.938Z,82.41
2023-06-05T03:02:42.822Z,82.41
2023-06-05T03:05:10.303Z,82.35
2023-06-05T03:07:37.497Z,82.27
2023-06-05T03:10:04.875Z,82.32
2023-06-05T03:12:31.624Z,82.35
2023-06-05T03:14:58.497Z,82.33
2023-06-05T03:17:25.397Z,82.28
2023-06-05T03:19:52.601Z,82.39
2023-06-05T03:22:19.502Z,82.63
2023-06-05T03:24:46.801Z,82.62
2023-06-05T03:27:14.087Z,82.70
2023-06-05T03:29:40.936Z,82.81
2023-06-05T03:32:07.791Z,82.97
2023-06-05T03:34:37.779Z,83.07
2023-06-05T03:37:04.944Z,83.26
2023-06-05T03:39:32.201Z,83.34
2023-06-05T03:41:58.994Z,83.48
2023-06-05T03:44:26.142Z,83.55
2023-06-05T03:46:53.501Z,83.60
2023-06-05T03:49:21.889Z,83.47
2023-06-05T03:51:49.496Z,83.50
2023-06-05T03:54:17.885Z,83.66
2023-06-05T03:56:50.782Z,83.48
2023-06-05T03:59:22.828Z,83.58
2023-06-05T04:01:49.783Z,83.51
2023-06-05T04:04:17.061Z,83.52
2023-06-05T04:06:44.730Z,83.65
2023-06-05T04:09:14.227Z,83.70
2023-06-05T04:11:41.778Z,83.74
2023-06-05T04:14:09.865Z,83.45
2023-06-05T04:16:40.284Z,83.32
2023-06-05T04:19:08.065Z,83.43
2023-06-05T04:21:37.232Z,83.28
2023-06-05T04:24:08.297Z,83.35
2023-06-05T04:26:35.870Z,83.53
2023-06-05T04:29:11.299Z,83.65
2023-06-05T04:31:42.005Z,83.43
2023-06-05T04:34:09.957Z,82.78
2023-06-05T04:36:37.601Z,82.17
2023-06-05T04:39:16.049Z,81.96
2023-06-05T04:41:46.611Z,81.86
2023-06-05T04:44:20.454Z,81.66
2023-06-05T04:46:47.452Z,81.05
2023-06-05T04:49:14.840Z,80.22
2023-06-05T04:51:42.275Z,80.43
2023-06-05T04:54:11.451Z,80.54
2023-06-05T04:56:39.342Z,80.30
2023-06-05T04:59:06.144Z,80.56
2023-06-05T05:01:33.516Z,80.26
2023-06-05T05:04:01.059Z,79.35
2023-06-05T05:06:28.279Z,78.20
2023-06-05T05:08:55.587Z,78.28
2023-06-05T05:11:22.766Z,77.78
2023-06-05T05:13:49.679Z,76.97
2023-06-05T05:16:17.031Z,76.85
2023-06-05T05:18:44.831Z,76.96
2023-06-05T05:21:12.544Z,77.50
2023-06-05T05:23:39.403Z,76.97
2023-06-05T05:26:06.385Z,76.86
2023-06-05T05:28:33.472Z,75.18
2023-06-05T05:31:02.220Z,75.14
2023-06-05T05:33:29.074Z,73.20
2023-06-05T05:35:56.851Z,73.72
2023-06-05T05:38:23.729Z,71.88
2023-06-05T05:40:53.291Z,72.36
2023-06-05T05:43:21.152Z,73.02
2023-06-05T05:45:48.160Z,73.32
2023-06-05T05:48:15.083Z,72.46
2023-06-05T05:50:42.129Z,72.73
2023-06-05T05:53:08.955Z,72.28
2023-06-05T05:55:35.869Z,71.44
2023-06-05T05:58:02.781Z,71.38
2023-06-05T06:00:29.822Z,71.47
2023-06-05T06:02:57.127Z,68.64
2023-06-05T06:05:24.208Z,70.77
2023-06-05T06:07:51.329Z,68.89
2023-06-05T06:10:18.372Z,69.30
2023-06-05T06:12:46.477Z,67.87
2023-06-05T06:15:13.360Z,67.84
2023-06-05T06:17:40.877Z,66.90
2023-06-05T06:20:08.326Z,64.90
2023-06-05T06:22:35.238Z,65.59
2023-06-05T06:25:02.648Z,64.96
2023-06-05T06:27:35.333Z,64.76
2023-06-05T06:30:03.455Z,64.08
2023-06-05T06:32:30.674Z,64.26
2023-06-05T06:34:57.833Z,66.24
2023-06-05T06:37:24.990Z,65.19
2023-06-05T06:39:52.229Z,63.47
2023-06-05T06:42:19.583Z,63.52
2023-06-05T06:44:46.572Z,62.72
2023-06-05T06:47:13.550Z,62.74
2023-06-05T06:49:43.073Z,64.83
2023-06-05T06:52:09.972Z,64.45
2023-06-05T06:54:39.158Z,63.77
2023-06-05T06:57:06.438Z,64.24
2023-06-05T06:59:33.616Z,62.57
2023-06-05T07:02:14.923Z,65.02
2023-06-05T07:04:45.114Z,62.39
2023-06-05T07:07:13.642Z,63.11
2023-06-05T07:09:44.082Z,60.54
2023-06-05T07:12:11.755Z,61.18
2023-06-05T07:14:38.857Z,61.50
2023-06-05T07:17:06.175Z,59.98
2023-06-05T07:19:33.675Z,58.88
2023-06-05T07:22:01.533Z,58.24
2023-06-05T07:24:30.344Z,58.80
2023-06-05T07:26:59.163Z,58.96
2023-06-05T07:29:25.991Z,57.39
2023-06-05T07:31:53.988Z,58.87
2023-06-05T07:34:21.411Z,59.23
2023-06-05T07:36:49.817Z,58.85
2023-06-05T07:39:17.138Z,58.95
2023-06-05T07:41:44.318Z,58.46
2023-06-05T07:44:12.225Z,59.64
2023-06-05T07:46:42.786Z,60.17
2023-06-05T07:49:10.528Z,57.34
2023-06-05T07:51:38.438Z,57.65
2023-06-05T07:54:09.971Z,56.03
2023-06-05T07:56:38.082Z,56.44
2023-06-05T07:59:05.700Z,56.50
2023-06-05T08:01:33.182Z,55.09
2023-06-05T08:04:00.240Z,55.80
2023-06-05T08:06:28.810Z,56.66
2023-06-05T08:08:55.668Z,55.49
2023-06-05T08:11:22.556Z,56.53
2023-06-05T08:13:49.461Z,54.70
2023-06-05T08:16:16.764Z,55.31
2023-06-05T08:18:44.119Z,58.19
2023-06-05T08:21:11.117Z,56.70
2023-06-05T08:23:38.080Z,57.78
2023-06-05T08:26:12.131Z,59.69
2023-06-05T08:28:40.820Z,56.53
2023-06-05T08:31:12.183Z,55.25
2023-06-05T08:33:39.484Z,57.82
2023-06-05T08:36:09.518Z,57.49
2023-06-05T08:38:38.989Z,57.46
2023-06-05T08:41:13.674Z,55.84
2023-06-05T08:43:42.406Z,54.40
2023-06-05T08:46:12.843Z,52.35
2023-06-05T08:48:44.980Z,52.76
2023-06-05T08:51:16.550Z,53.65
2023-06-05T08:53:46.703Z,54.13
2023-06-05T08:56:13.604Z,52.55
2023-06-05T08:58:40.747Z,51.72
2023-06-05T09:01:07.985Z,52.49
2023-06-05T09:03:35.297Z,54.04
2023-06-05T09:06:04.514Z,50.91
2023-06-05T09:08:32.938Z,52.36
2023-06-05T09:11:25.049Z,51.01
2023-06-05T09:13:53.106Z,48.25
2023-06-05T09:16:21.634Z,48.83
2023-06-05T09:18:58.527Z,47.11
2023-06-05T09:21:34.845Z,47.41
2023-06-05T09:24:11.405Z,49.11
2023-06-05T09:26:51.808Z,46.29
2023-06-05T09:29:23.227Z,47.72
2023-06-05T09:31:52.110Z,47.54
2023-06-05T09:34:40.854Z,48.86
2023-06-05T09:37:08.868Z,48.81
2023-06-05T09:39:39.950Z,48.15
2023-06-05T09:42:07.076Z,46.94
2023-06-05T09:44:34.998Z,47.96
2023-06-05T09:47:02.530Z,50.30
2023-06-05T09:49:42.331Z,51.47
2023-06-05T09:52:10.529Z,50.30
2023-06-05T09:54:43.374Z,50.53
2023-06-05T09:57:11.288Z,50.47
2023-06-05T09:59:51.581Z,50.11
2023-06-05T10:02:18.902Z,52.61
2023-06-05T10:04:58.450Z,49.64
2023-06-05T10:07:25.610Z,48.67
2023-06-05T10:09:52.813Z,49.67
2023-06-05T10:12:19.789Z,49.55
2023-06-05T10:14:46.710Z,52.81
2023-06-05T10:17:14.210Z,49.53
2023-06-05T10:19:44.696Z,49.15
2023-06-05T10:22:14.743Z,49.73
2023-06-05T10:24:46.790Z,47.10
2023-06-05T10:27:50.486Z,48.52
2023-06-05T10:30:45.345Z,49.77
2023-06-05T10:33:49.794Z,50.27
2023-06-05T10:36:26.302Z,46.97
2023-06-05T10:38:53.150Z,45.56
2023-06-05T10:41:20.551Z,45.96
2023-06-05T10:43:53.377Z,50.57
2023-06-05T10:46:39.134Z,46.22
2023-06-05T10:49:09.419Z,47.10
2023-06-05T10:51:47.800Z,46.19
2023-06-05T10:54:24.301Z,50.19
2023-06-05T10:57:04.804Z,47.93
2023-06-05T10:59:38.792Z,48.12
2023-06-05T11:02:13.389Z,47.90
2023-06-05T11:04:44.497Z,46.35
2023-06-05T11:07:31.157Z,48.80
2023-06-05T11:10:04.783Z,47.42
2023-06-05T11:12:43.608Z,46.80
2023-06-05T11:15:39.839Z,46.49
2023-06-05T11:18:29.168Z,46.94
2023-06-05T11:20:56.275Z,50.02
2023-06-05T11:23:23.213Z,52.05
2023-06-05T11:25:51.555Z,49.63
2023-06-05T11:28:38.357Z,48.46
2023-06-05T11:31:05.225Z,46.78
2023-06-05T11:33:32.795Z,46.86
2023-06-05T11:36:04.430Z,48.12
2023-06-05T11:38:31.358Z,49.87
2023-06-05T11:40:58.285Z,46.62
2023-06-05T11:43:25.333Z,46.49
2023-06-05T11:45:56.744Z,44.66
2023-06-05T11:48:24.251Z,47.12
2023-06-05T11:51:04.670Z,45.71
2023-06-05T11:53:32.318Z,46.80
2023-06-05T11:56:04.960Z,45.97
2023-06-05T11:58:37.406Z,47.48
2023-06-05T12:01:26.697Z,46.53
2023-06-05T12:04:07.991Z,46.26
2023-06-05T12:06:42.900Z,48.04
2023-06-05T12:09:11.919Z,46.29
2023-06-05T12:11:43.230Z,45.98
2023-06-05T12:14:11.562Z,44.91
2023-06-05T12:16:39.506Z,44.82
2023-06-05T12:19:20.059Z,47.00
2023-06-05T12:21:48.486Z,45.22
2023-06-05T12:24:15.334Z,47.19
2023-06-05T12:26:54.944Z,46.10
2023-06-05T12:29:24.895Z,46.82
2023-06-05T12:31:52.453Z,48.39
2023-06-05T12:34:19.525Z,46.82
2023-06-05T12:36:46.489Z,47.17
2023-06-05T12:39:14.154Z,47.41
2023-06-05T12:41:41.272Z,46.20
2023-06-05T12:44:09.361Z,48.31
2023-06-05T12:46:37.300Z,47.80
2023-06-05T12:49:04.778Z,48.28
2023-06-05T12:51:32.387Z,48.45
2023-06-05T12:53:59.566Z,50.43
2023-06-05T12:56:28.361Z,49.10
2023-06-05T12:58:56.120Z,49.67
2023-06-05T13:01:24.211Z,50.02
2023-06-05T13:03:52.122Z,49.84
2023-06-05T13:06:19.885Z,48.05
2023-06-05T13:08:48.217Z,48.63
2023-06-05T13:11:15.316Z,48.68
2023-06-05T13:13:42.455Z,47.39
2023-06-05T13:16:10.767Z,50.89
2023-06-05T13:18:37.955Z,48.86
2023-06-05T13:21:05.455Z,48.63
2023-06-05T13:23:33.076Z,49.26
2023-06-05T13:26:01.084Z,48.54
2023-06-05T13:28:27.719Z,50.28
2023-06-05T13:30:55.486Z,48.50
2023-06-05T13:33:22.595Z,49.48
2023-06-05T13:35:49.536Z,49.08
2023-06-05T13:38:16.846Z,49.13
2023-06-05T13:40:49.051Z,49.35
2023-06-05T13:43:16.764Z,49.25
2023-06-05T13:45:44.543Z,49.32
2023-06-05T13:48:11.557Z,49.33
2023-06-05T13:50:38.574Z,51.89
2023-06-05T13:53:05.529Z,50.07
2023-06-05T13:55:32.469Z,48.12
2023-06-05T13:58:02.418Z,48.03
2023-06-05T14:00:32.243Z,48.39
2023-06-05T14:02:59.997Z,52.40
2023-06-05T14:05:28.298Z,49.75
2023-06-05T14:07:55.192Z,47.80
2023-06-05T14:10:23.766Z,49.06
2023-06-05T14:12:51.808Z,48.55
2023-06-05T14:15:19.398Z,48.59
2023-06-05T14:17:47.245Z,47.25
2023-06-05T14:20:14.582Z,47.29
2023-06-05T14:22:42.003Z,49.00
2023-06-05T14:25:10.089Z,49.06
2023-06-05T14:27:36.986Z,47.39
2023-06-05T14:30:04.306Z,46.64
2023-06-05T14:32:32.078Z,47.07
2023-06-05T14:34:59.381Z,45.50
2023-06-05T14:37:26.270Z,44.59
2023-06-05T14:39:53.307Z,46.32
2023-06-05T14:42:20.322Z,44.09
2023-06-05T14:44:47.193Z,45.44
2023-06-05T14:47:14.149Z,45.68
2023-06-05T14:49:40.964Z,45.56
2023-06-05T14:52:07.814Z,45.73
2023-06-05T14:54:34.699Z,47.17
2023-06-05T14:57:01.469Z,48.78
2023-06-05T14:59:30.368Z,47.24
2023-06-05T15:01:58.027Z,49.11
2023-06-05T15:04:30.419Z,48.07
2023-06-05T15:06:57.435Z,48.78
2023-06-05T15:12:06.898Z,48.37
2023-06-05T15:14:35.837Z,48.58
2023-06-05T15:17:02.829Z,49.07
2023-06-05T15:19:29.642Z,48.67
2023-06-05T15:21:56.527Z,49.77
2023-06-05T15:24:23.313Z,50.51
2023-06-05T15:26:50.158Z,50.23
2023-06-05T15:29:17.085Z,48.73
2023-06-05T15:31:44.108Z,50.15
2023-06-05T15:34:11.252Z,49.67
2023-06-05T15:36:38.554Z,50.36
2023-06-05T15:39:05.549Z,51.13
2023-06-05T15:41:32.709Z,51.38
2023-06-05T15:43:59.634Z,51.55
2023-06-05T15:46:26.603Z,52.35
2023-06-05T15:48:53.378Z,53.00
2023-06-05T15:51:20.188Z,54.10
2023-06-05T15:53:57.743Z,54.21
2023-06-05T15:56:30.674Z,56.02
2023-06-05T15:58:57.487Z,56.64
2023-06-05T16:01:24.935Z,57.13
2023-06-05T16:03:51.749Z,57.81
2023-06-05T16:06:18.762Z,56.98
2023-06-05T16:08:45.560Z,56.43
2023-06-05T16:11:12.452Z,57.29
2023-06-05T16:13:40.732Z,57.46
2023-06-05T16:16:07.519Z,56.94
2023-06-05T16:18:34.286Z,59.27
2023-06-05T16:21:01.304Z,59.70
2023-06-05T16:23:28.121Z,59.99
2023-06-05T16:25:55.083Z,60.36
2023-06-05T16:28:21.882Z,59.85
2023-06-05T16:30:48.871Z,60.85
2023-06-05T16:33:15.909Z,60.37
2023-06-05T16:35:42.708Z,60.50
2023-06-05T16:38:09.497Z,60.94
2023-06-05T16:40:38.305Z,59.92
2023-06-05T16:43:06.628Z,60.84
2023-06-05T16:45:37.855Z,60.39
2023-06-05T16:48:05.102Z,60.90
2023-06-05T16:50:32.215Z,60.96
2023-06-05T16:52:59.227Z,60.27
2023-06-05T16:55:26.727Z,61.51
2023-06-05T16:57:54.747Z,61.90
2023-06-05T17:00:21.866Z,62.62
2023-06-05T17:02:49.493Z,63.03
2023-06-05T17:05:17.211Z,63.36
2023-06-05T17:07:44.771Z,63.95
2023-06-05T17:10:11.930Z,64.01
2023-06-05T17:12:42.063Z,64.35
2023-06-05T17:15:12.045Z,65.16
2023-06-05T17:17:39.028Z,65.16
2023-06-05T17:20:08.721Z,65.58
2023-06-05T17:22:37.674Z,65.96
2023-06-05T17:25:04.968Z,66.18
2023-06-05T17:27:32.608Z,66.46
2023-06-05T17:30:00.210Z,66.82
2023-06-05T17:32:27.320Z,66.93
2023-06-05T17:34:54.250Z,66.45
2023-06-05T17:37:21.258Z,66.92
2023-06-05T17:39:48.186Z,67.50
2023-06-05T17:42:15.152Z,67.37
2023-06-05T17:44:42.111Z,68.08
2023-06-05T17:47:08.973Z,68.52
2023-06-05T17:49:35.903Z,68.82
2023-06-05T17:52:03.437Z,69.00
2023-06-05T17:54:30.545Z,69.51
2023-06-05T17:56:57.624Z,69.47
2023-06-05T17:59:24.678Z,68.72
2023-06-05T18:01:54.560Z,67.64
2023-06-05T18:04:21.714Z,68.32
2023-06-05T18:06:48.624Z,69.16
2023-06-05T18:09:15.365Z,69.88
2023-06-05T18:11:45.197Z,69.92
2023-06-05T18:14:12.138Z,70.21
2023-06-05T18:16:39.123Z,70.43
2023-06-05T18:19:06.170Z,69.60
2023-06-05T18:21:34.396Z,69.51
2023-06-05T18:24:01.149Z,69.48
2023-06-05T18:26:28.153Z,69.46
2023-06-05T18:28:55.099Z,69.74
2023-06-05T18:31:22.761Z,69.77
2023-06-05T18:33:52.060Z,69.54
2023-06-05T18:36:19.162Z,69.90
2023-06-05T18:38:47.192Z,69.88
2023-06-05T18:41:15.782Z,70.01
2023-06-05T18:43:42.625Z,70.34
2023-06-05T18:46:09.521Z,69.92
2023-06-05T18:48:36.445Z,69.89
2023-06-05T18:51:04.983Z,70.51
2023-06-05T18:53:32.768Z,70.54
2023-06-05T18:56:00.010Z,70.20
2023-06-05T18:58:27.765Z,70.01
2023-06-05T19:00:54.802Z,70.36
2023-06-05T19:03:21.863Z,70.50
2023-06-05T19:05:48.735Z,70.85
2023-06-05T19:08:15.842Z,71.00
2023-06-05T19:10:43.818Z,70.74
2023-06-05T19:13:11.000Z,70.40
2023-06-05T19:15:38.789Z,70.66
2023-06-05T19:18:07.880Z,70.58
2023-06-05T19:20:35.447Z,70.49
2023-06-05T19:23:02.432Z,70.95
2023-06-05T19:25:29.328Z,70.90
2023-06-05T19:27:56.850Z,71.00
2023-06-05T19:30:23.647Z,71.25
2023-06-05T19:32:50.878Z,71.29
2023-06-05T19:35:18.120Z,71.55
2023-06-05T19:37:49.140Z,71.82
2023-06-05T19:40:16.571Z,72.05
2023-06-05T19:42:44.501Z,72.13
2023-06-05T19:45:11.933Z,72.03
2023-06-05T19:47:39.428Z,71.78
2023-06-05T19:50:07.388Z,71.68
2023-06-05T19:52:35.103Z,71.75
2023-06-05T19:55:02.097Z,71.70
2023-06-05T19:57:28.959Z,71.66
2023-06-05T19:59:55.951Z,71.79
2023-06-05T20:02:22.846Z,71.64
2023-06-05T20:04:49.856Z,71.76
2023-06-05T20:07:16.615Z,71.54
2023-06-05T20:09:43.364Z,70.96
2023-06-05T20:12:10.553Z,70.40
2023-06-05T20:14:37.428Z,70.92
2023-06-05T20:17:04.538Z,69.99
2023-06-05T20:19:31.480Z,70.38
2023-06-05T20:22:04.183Z,70.26
2023-06-05T20:24:33.095Z,70.59
2023-06-05T20:26:59.871Z,70.47
2023-06-05T20:29:26.668Z,70.33
2023-06-05T20:31:53.623Z,70.58
2023-06-05T20:34:20.541Z,70.62
2023-06-05T20:36:47.435Z,70.01
2023-06-05T20:39:18.118Z,70.54
2023-06-05T20:41:51.142Z,70.58
2023-06-05T20:44:24.563Z,70.51
2023-06-05T20:46:56.884Z,70.10
2023-06-05T20:49:24.120Z,70.10
2023-06-05T20:51:52.575Z,70.05
2023-06-05T20:54:19.374Z,69.89
2023-06-05T20:56:46.705Z,69.70
2023-06-05T20:59:14.114Z,69.87
2023-06-05T21:01:41.048Z,69.93
2023-06-05T21:04:08.129Z,69.53
2023-06-05T21:06:37.107Z,69.19
2023-06-05T21:09:04.205Z,69.59
2023-06-05T21:11:31.109Z,69.37
2023-06-05T21:13:57.950Z,69.41
2023-06-05T21:16:25.653Z,69.83
2023-06-05T21:18:53.252Z,69.92
2023-06-05T21:21:20.106Z,69.77
2023-06-05T21:23:47.047Z,69.40
2023-06-05T21:26:14.178Z,69.11
2023-06-05T21:28:40.900Z,69.29
2023-06-05T21:31:08.254Z,70.11
2023-06-05T21:33:37.963Z,70.37
2023-06-05T21:36:05.029Z,70.12
2023-06-05T21:38:32.151Z,70.05
2023-06-05T21:40:58.893Z,69.89
2023-06-05T21:43:25.721Z,69.80
2023-06-05T21:45:52.534Z,69.88
2023-06-05T21:48:21.484Z,69.89
2023-06-05T21:50:48.378Z,70.40
2023-06-05T21:53:15.214Z,69.91
2023-06-05T21:55:42.102Z,70.36
2023-06-05T21:58:08.868Z,70.83
2023-06-05T22:00:35.656Z,71.36
2023-06-05T22:03:02.591Z,71.35
2023-06-05T22:05:30.889Z,71.60
2023-06-05T22:07:58.376Z,70.86
2023-06-05T22:10:25.217Z,71.31
2023-06-05T22:12:52.056Z,71.34
2023-06-05T22:15:21.153Z,71.85
2023-06-05T22:17:48.947Z,72.60
2023-06-05T22:20:16.045Z,72.76
2023-06-05T22:22:42.811Z,72.91
2023-06-05T22:25:09.915Z,73.16
2023-06-05T22:27:36.924Z,73.44
2023-06-05T22:30:03.955Z,73.54
2023-06-05T22:32:30.788Z,73.36
2023-06-05T22:34:57.705Z,73.34
2023-06-05T22:37:26.613Z,73.51
2023-06-05T22:39:53.959Z,72.86
2023-06-05T22:42:21.446Z,72.82
2023-06-05T22:44:48.302Z,72.95
2023-06-05T22:47:15.160Z,73.11
2023-06-05T22:49:42.306Z,73.20
2023-06-05T22:52:10.485Z,73.21
2023-06-05T22:54:37.674Z,73.34
2023-06-05T22:57:06.455Z,73.32
2023-06-05T22:59:33.391Z,73.65
2023-06-05T23:02:00.176Z,73.49
2023-06-05T23:04:27.176Z,73.44
2023-06-05T23:06:54.139Z,73.68
2023-06-05T23:09:21.016Z,73.94
2023-06-05T23:11:47.923Z,73.78
2023-06-05T23:14:16.376Z,73.60
2023-06-05T23:16:43.091Z,74.03
2023-06-05T23:19:11.881Z,74.01
2023-06-05T23:21:38.676Z,73.91
2023-06-05T23:24:05.899Z,74.17
2023-06-05T23:26:33.107Z,74.41
2023-06-05T23:28:59.880Z,74.73
2023-06-05T23:31:29.794Z,74.65
2023-06-05T23:33:57.037Z,74.82
2023-06-05T23:36:24.900Z,75.10
2023-06-05T23:38:51.744Z,74.50
2023-06-05T23:41:18.967Z,74.19
2023-06-05T23:43:46.689Z,74.48
2023-06-05T23:46:13.731Z,74.77
2023-06-05T23:48:41.017Z,74.96
2023-06-05T23:51:07.859Z,74.90
2023-06-05T23:53:34.653Z,75.09
2023-06-05T23:56:01.591Z,75.20
2023-06-05T23:58:28.428Z,75.20
